Time;durP1;ratioP1;P1;durP2;ratioP2;P2;SDS_P1;SDS_P2;PMS_P1;PMS_P2;Temp;Humidity;BMP_temperature;BMP_pressure;BME280_temperature;BME280_humidity;BME280_pressure;Samples;Min_cycle;Max_cycle;Signal;HPM_P1;HPM_P2
2024/01/20 00:01:25;;;;;;;;;24.25;17.00;;;;;2.50;70.57;102266.66;5038445;28;45374;-53
2024/01/20 00:03:51;;;;;;;;;29.75;23.75;;;;;2.50;70.41;102271.84;5041020;28;45574;-51
2024/01/20 00:06:16;;;;;;;;;26.50;23.75;;;;;2.49;70.23;102265.78;5045012;28;46784;-53
2024/01/20 00:08:41;;;;;;;;;30.25;25.75;;;;;2.48;70.38;102269.22;5037530;28;73055;-52
2024/01/20 00:11:07;;;;;;;;;37.00;22.33;;;;;2.47;70.60;102275.22;5041227;28;69428;-54
2024/01/20 00:13:32;;;;;;;;;25.50;23.50;;;;;2.48;70.76;102271.81;5041281;28;65039;-53
2024/01/20 00:15:57;;;;;;;;;25.00;21.00;;;;;2.48;70.62;102274.41;5041127;28;76067;-55
2024/01/20 00:18:23;;;;;;;;;32.33;25.67;;;;;2.47;70.48;102270.91;5033483;28;72187;-53
2024/01/20 00:20:48;;;;;;;;;32.33;23.00;;;;;2.46;70.44;102279.50;5041909;28;69392;-52
2024/01/20 00:23:14;;;;;;;;;34.67;24.00;;;;;2.45;70.38;102285.50;5043682;28;73172;-54
2024/01/20 00:25:42;;;;;;;;;22.00;17.00;;;;;2.42;70.45;102279.34;5041112;28;75459;-54
2024/01/20 00:28:07;;;;;;;;;30.00;19.25;;;;;2.39;70.51;102274.97;5041898;28;46001;-53
2024/01/20 00:30:33;;;;;;;;;35.00;20.50;;;;;2.37;70.64;102266.28;5042038;28;45346;-50
2024/01/20 00:32:58;;;;;;;;;37.25;22.25;;;;;2.37;70.48;102266.28;5040804;28;71232;-52
2024/01/20 00:35:24;;;;;;;;;27.00;21.50;;;;;2.38;70.43;102277.50;5041416;28;46139;-50
2024/01/20 00:37:49;;;;;;;;;44.25;27.25;;;;;2.37;70.54;102279.19;5041788;28;45335;-53
2024/01/20 00:40:15;;;;;;;;;29.25;20.75;;;;;2.40;70.67;102271.56;5041496;28;49973;-52
2024/01/20 00:42:40;;;;;;;;;28.50;23.25;;;;;2.39;70.84;102277.56;5041403;28;45529;-51
2024/01/20 00:45:07;;;;;;;;;33.50;24.75;;;;;2.43;70.73;102288.88;5041365;28;46169;-54
2024/01/20 00:47:33;;;;;;;;;23.00;21.00;;;;;2.45;70.65;102287.22;5046645;28;45833;-49
2024/01/20 00:49:58;;;;;;;;;29.75;24.50;;;;;2.48;70.64;102292.47;5041528;28;45798;-50
2024/01/20 00:52:23;;;;;;;;;31.00;24.50;;;;;2.49;70.71;102294.22;5039154;28;56228;-51
2024/01/20 00:54:50;;;;;;;;;33.50;23.75;;;;;2.50;70.60;102296.00;5043280;28;59831;-52
2024/01/20 00:57:15;;;;;;;;;26.00;20.50;;;;;2.50;70.76;102292.50;5041864;28;45855;-52
2024/01/20 00:59:41;;;;;;;;;33.75;23.00;;;;;2.48;70.56;102295.06;5041916;28;45333;-54
2024/01/20 01:02:06;;;;;;;;;27.25;23.50;;;;;2.50;70.63;102297.66;5040656;28;65443;-53
2024/01/20 01:04:31;;;;;;;;;33.00;23.50;;;;;2.51;70.51;102302.03;5040799;28;70751;-51
2024/01/20 01:06:57;;;;;;;;;25.50;23.00;;;;;2.51;70.31;102297.72;5040126;28;66345;-52
2024/01/20 01:09:22;;;;;;;;;33.00;20.75;;;;;2.52;70.76;102294.31;5040546;28;67221;-50
2024/01/20 01:11:47;;;;;;;;;33.33;20.33;;;;;2.53;70.45;102300.34;5038476;28;73323;-50
2024/01/20 01:14:13;;;;;;;;;38.75;23.00;;;;;2.52;70.52;102296.03;5040835;28;46523;-51
2024/01/20 01:16:38;;;;;;;;;33.50;20.50;;;;;2.48;69.98;102302.81;5042472;28;53473;-51
2024/01/20 01:19:04;;;;;;;;;30.25;22.50;;;;;2.44;70.38;102290.59;5047006;28;45361;-50
2024/01/20 01:21:29;;;;;;;;;27.00;22.50;;;;;2.40;70.24;102297.38;5040384;28;58798;-53
2024/01/20 01:23:54;;;;;;;;;32.25;22.00;;;;;2.37;69.95;102294.69;5041123;28;48575;-50
2024/01/20 01:26:20;;;;;;;;;29.75;21.25;;;;;2.36;70.26;102295.53;5039879;28;72190;-52
2024/01/20 01:28:45;;;;;;;;;41.50;24.25;;;;;2.34;70.18;102294.63;5041938;28;45541;-56
2024/01/20 01:31:11;;;;;;;;;29.50;19.00;;;;;2.31;70.39;102298.81;5040676;28;45445;-52
2024/01/20 01:33:36;;;;;;;;;28.50;20.75;;;;;2.31;70.35;102298.81;5044472;28;46125;-48
2024/01/20 01:36:03;;;;;;;;;27.25;23.00;;;;;2.29;70.30;102296.19;5042492;28;72082;-48
2024/01/20 01:38:28;;;;;;;;;23.00;19.00;;;;;2.27;70.38;102295.25;5041168;28;45652;-48
2024/01/20 01:40:53;;;;;;;;;25.33;20.33;;;;;2.26;70.42;102296.94;5039810;28;69726;-53
2024/01/20 01:43:19;;;;;;;;;28.25;20.00;;;;;2.27;70.23;102298.72;5040117;28;68750;-53
2024/01/20 01:45:44;;;;;;;;;27.00;19.00;;;;;2.26;70.25;102307.28;5038770;28;70044;-53
2024/01/20 01:48:09;;;;;;;;;27.00;19.00;;;;;2.25;70.16;102307.25;5040147;28;68321;-51
2024/01/20 01:50:36;;;;;;;;;24.50;19.50;;;;;2.26;70.23;102315.03;5039142;28;55083;-53
2024/01/20 01:53:02;;;;;;;;;32.25;20.75;;;;;2.25;69.96;102321.03;5040638;28;46238;-53
2024/01/20 01:55:27;;;;;;;;;32.00;20.25;;;;;2.23;70.15;102324.38;5056253;28;45254;-54
2024/01/20 01:57:53;;;;;;;;;28.50;21.50;;;;;2.22;70.10;102322.63;5040269;28;46549;-52
2024/01/20 02:00:19;;;;;;;;;38.00;30.00;;;;;2.23;70.39;102316.63;5043574;28;45469;-53
2024/01/20 02:02:44;;;;;;;;;36.50;24.50;;;;;2.24;70.35;102316.69;5041070;28;45373;-54
2024/01/20 02:05:10;;;;;;;;;32.50;24.00;;;;;2.28;70.25;102326.31;5039266;28;73146;-53
2024/01/20 02:07:37;;;;;;;;;28.25;21.00;;;;;2.29;70.22;102332.34;5039941;28;62118;-54
2024/01/20 02:10:05;;;;;;;;;27.75;19.00;;;;;2.30;70.38;102334.09;5040211;28;45933;-54
2024/01/20 02:12:31;;;;;;;;;29.50;18.75;;;;;2.32;70.26;102331.56;5039613;28;46214;-51
2024/01/20 02:14:56;;;;;;;;;29.25;18.75;;;;;2.34;70.24;102330.78;5040417;28;45234;-54
2024/01/20 02:17:21;;;;;;;;;27.50;20.75;;;;;2.32;70.17;102327.28;5035136;28;66110;-50
2024/01/20 02:19:47;;;;;;;;;21.67;18.33;;;;;2.33;70.19;102330.75;5069652;28;70509;-54
2024/01/20 02:22:13;;;;;;;;;27.25;18.75;;;;;2.31;70.00;102325.50;5040599;28;47304;-52
2024/01/20 02:24:39;;;;;;;;;23.50;18.75;;;;;2.32;70.16;102326.38;5038956;28;45425;-55
2024/01/20 02:27:05;;;;;;;;;22.75;19.00;;;;;2.32;70.22;102328.97;5040042;28;45364;-54
2024/01/20 02:29:31;;;;;;;;;31.00;19.75;;;;;2.32;70.04;102326.38;5040371;28;45482;-54
2024/01/20 02:31:56;;;;;;;;;25.00;20.25;;;;;2.31;69.83;102332.41;5070680;27;49790;-52
2024/01/20 02:34:21;;;;;;;;;20.25;16.50;;;;;2.26;69.82;102335.69;5071262;28;52259;-50
2024/01/20 02:36:47;;;;;;;;;34.25;20.00;;;;;2.19;69.66;102340.59;5073083;28;69451;-54
2024/01/20 02:39:12;;;;;;;;;30.50;23.00;;;;;2.11;69.89;102340.38;5042980;28;45399;-54
2024/01/20 02:41:37;;;;;;;;;25.75;19.50;;;;;2.07;69.93;102331.63;5037791;28;45358;-51
2024/01/20 02:44:07;;;;;;;;;30.67;20.67;;;;;2.09;70.07;102326.53;5038686;28;73692;-52
2024/01/20 02:46:32;;;;;;;;;26.00;19.25;;;;;2.06;69.94;102332.44;5040187;28;45275;-49
2024/01/20 02:48:57;;;;;;;;;19.50;14.50;;;;;2.03;69.80;102334.06;5039519;28;45566;-51
2024/01/20 02:51:23;;;;;;;;;25.50;19.75;;;;;2.01;70.08;102331.41;5038277;28;46001;-55
2024/01/20 02:53:48;;;;;;;;;28.33;16.67;;;;;2.00;70.06;102340.00;5039874;28;71905;-53
2024/01/20 02:56:13;;;;;;;;;17.00;14.33;;;;;2.04;70.36;102338.41;5040348;28;69428;-53
2024/01/20 02:58:39;;;;;;;;;36.00;19.33;;;;;2.05;70.47;102337.56;5037993;28;71413;-54
2024/01/20 03:01:06;;;;;;;;;27.67;21.00;;;;;2.07;70.32;102334.22;5038173;28;75527;-54
2024/01/20 03:03:31;;;;;;;;;24.50;16.00;;;;;2.07;70.13;102328.16;5039698;28;45296;-52
2024/01/20 03:05:56;;;;;;;;;19.50;18.50;;;;;2.07;70.04;102333.31;5037391;28;65758;-53
2024/01/20 03:08:22;;;;;;;;;31.25;18.00;;;;;2.04;70.05;102335.81;5039469;28;50804;-54
2024/01/20 03:10:47;;;;;;;;;29.25;18.00;;;;;1.99;70.23;102333.06;5039614;28;54701;-51
2024/01/20 03:13:12;;;;;;;;;25.25;17.75;;;;;1.97;69.94;102336.44;5039175;28;56085;-53
2024/01/20 03:15:38;;;;;;;;;30.75;20.00;;;;;1.92;69.90;102338.84;5040097;28;45247;-55
2024/01/20 03:18:03;;;;;;;;;26.75;20.50;;;;;1.89;70.09;102341.31;5031855;28;63705;-54
2024/01/20 03:20:29;;;;;;;;;27.25;23.00;;;;;1.86;70.00;102338.63;5039521;28;46918;-54
2024/01/20 03:22:54;;;;;;;;;36.50;20.00;;;;;1.83;70.00;102335.97;5038684;28;58823;-54
2024/01/20 03:25:19;;;;;;;;;24.25;20.00;;;;;1.81;70.12;102335.03;5038790;28;59877;-50
2024/01/20 03:27:45;;;;;;;;;28.50;20.25;;;;;1.80;69.83;102336.72;5039645;28;45228;-52
2024/01/20 03:30:10;;;;;;;;;22.67;18.67;;;;;1.84;70.05;102337.69;5070171;27;74797;-53
2024/01/20 03:32:35;;;;;;;;;19.50;18.75;;;;;1.86;70.22;102346.38;5039177;28;45279;-52
2024/01/20 03:35:01;;;;;;;;;28.00;20.33;;;;;1.88;70.16;102348.19;5038090;28;68385;-54
2024/01/20 03:37:26;;;;;;;;;23.00;17.75;;;;;1.91;69.97;102347.41;5039068;28;45646;-55
2024/01/20 03:39:52;;;;;;;;;28.25;18.75;;;;;1.90;69.82;102345.66;5038829;28;45848;-55
2024/01/20 03:42:18;;;;;;;;;26.75;19.25;;;;;1.93;70.06;102348.38;5038764;28;45239;-53
2024/01/20 03:44:43;;;;;;;;;28.50;20.50;;;;;1.90;69.75;102340.50;5041900;28;45449;-53
2024/01/20 03:47:09;;;;;;;;;28.75;21.50;;;;;1.85;69.62;102344.63;5042314;28;61058;-52
2024/01/20 03:49:34;;;;;;;;;21.00;18.00;;;;;1.79;69.80;102342.72;5043317;28;45433;-53
2024/01/20 03:51:59;;;;;;;;;38.50;21.25;;;;;1.77;69.79;102336.63;5042417;28;45354;-53
2024/01/20 03:54:25;;;;;;;;;31.75;20.00;;;;;1.71;69.87;102332.09;5041831;28;68111;-54
2024/01/20 03:56:50;;;;;;;;;24.67;20.67;;;;;1.73;69.99;102341.63;5041539;28;73126;-49
2024/01/20 03:59:15;;;;;;;;;26.75;17.00;;;;;1.71;69.87;102339.84;5042093;28;46005;-54
2024/01/20 04:01:41;;;;;;;;;29.67;15.67;;;;;1.71;69.83;102341.56;5041292;28;72374;-52
2024/01/20 04:04:06;;;;;;;;;25.75;18.50;;;;;1.69;69.81;102335.47;5041760;28;60129;-50
2024/01/20 04:06:32;;;;;;;;;21.25;16.25;;;;;1.67;69.96;102339.69;5042022;28;45291;-55
2024/01/20 04:08:57;;;;;;;;;37.00;24.50;;;;;1.65;69.79;102341.34;5041998;28;46067;-51
2024/01/20 04:11:22;;;;;;;;;29.33;18.33;;;;;1.62;69.90;102338.66;5041416;28;71990;-54
2024/01/20 04:13:48;;;;;;;;;19.75;18.00;;;;;1.57;69.69;102350.50;5073549;28;63145;-50
2024/01/20 04:16:13;;;;;;;;;20.25;18.75;;;;;1.51;69.61;102340.84;5045642;28;45197;-54
2024/01/20 04:18:38;;;;;;;;;21.75;19.25;;;;;1.48;70.10;102340.72;5035320;28;75419;-54
2024/01/20 04:21:04;;;;;;;;;30.75;19.00;;;;;1.47;70.11;102357.03;5042389;28;45247;-51
2024/01/20 04:23:29;;;;;;;;;27.50;18.25;;;;;1.47;70.05;102355.34;5042316;28;45344;-51
2024/01/20 04:25:55;;;;;;;;;23.67;19.67;;;;;1.47;70.02;102354.44;5041205;28;70832;-54
2024/01/20 04:28:20;;;;;;;;;26.00;16.00;;;;;1.41;69.73;102352.53;5041717;28;49679;-52
2024/01/20 04:30:45;;;;;;;;;19.67;12.00;;;;;1.37;70.17;102350.66;5041065;28;72611;-51
2024/01/20 04:33:11;;;;;;;;;21.50;13.75;;;;;1.32;70.13;102345.31;5042271;28;45226;-51
2024/01/20 04:35:36;;;;;;;;;25.00;18.00;;;;;1.36;69.97;102351.47;5042563;28;45499;-54
2024/01/20 04:38:01;;;;;;;;;24.00;17.00;;;;;1.36;70.05;102348.03;5040462;28;73959;-55
2024/01/20 04:40:27;;;;;;;;;22.50;15.75;;;;;1.33;69.94;102354.84;5041384;28;45328;-50
2024/01/20 04:42:52;;;;;;;;;28.00;18.33;;;;;1.31;69.99;102358.16;5039493;28;69543;-54
2024/01/20 04:45:17;;;;;;;;;19.00;14.67;;;;;1.24;70.23;102354.50;5040367;28;72223;-55
2024/01/20 04:47:43;;;;;;;;;17.75;13.00;;;;;1.19;69.91;102355.13;5041837;28;46081;-53
2024/01/20 04:50:08;;;;;;;;;13.50;12.25;;;;;1.15;70.37;102354.13;5043438;28;68516;-53
2024/01/20 04:52:33;;;;;;;;;12.50;6.00;;;;;1.11;70.04;102355.72;5041004;28;69548;-55
2024/01/20 04:54:59;;;;;;;;;24.25;18.50;;;;;1.08;70.16;102354.72;5041091;28;45558;-54
2024/01/20 04:57:24;;;;;;;;;26.50;16.00;;;;;1.04;70.20;102355.44;5039157;28;68105;-54
2024/01/20 04:59:49;;;;;;;;;18.33;15.33;;;;;1.00;69.96;102358.72;5040570;28;68421;-55
2024/01/20 05:02:15;;;;;;;;;21.25;18.75;;;;;0.94;70.26;102362.81;5040486;28;69375;-53
2024/01/20 05:04:40;;;;;;;;;33.75;16.75;;;;;0.90;70.46;102366.09;5041694;28;45521;-55
2024/01/20 05:07:05;;;;;;;;;25.75;17.25;;;;;0.87;70.57;102370.25;5040092;28;75686;-53
2024/01/20 05:09:31;;;;;;;;;26.75;19.00;;;;;0.86;70.81;102376.22;5040691;28;73307;-50
2024/01/20 05:11:56;;;;;;;;;43.25;23.25;;;;;0.84;70.91;102370.13;5041035;28;45422;-49
2024/01/20 05:14:21;;;;;;;;;23.33;21.00;;;;;0.83;71.05;102370.94;5039076;28;69292;-48
2024/01/20 05:16:47;;;;;;;;;29.00;18.75;;;;;0.80;70.98;102371.72;5043039;28;48895;-48
2024/01/20 05:19:12;;;;;;;;;24.75;19.75;;;;;0.79;70.91;102363.91;5048060;28;45227;-53
2024/01/20 05:21:38;;;;;;;;;30.33;22.33;;;;;0.77;71.17;102361.28;5040496;28;69104;-49
2024/01/20 05:24:04;;;;;;;;;22.50;19.75;;;;;0.78;71.20;102372.44;5041232;28;45540;-49
2024/01/20 05:26:30;;;;;;;;;30.00;20.25;;;;;0.77;71.16;102362.97;5073262;28;46956;-50
2024/01/20 05:28:56;;;;;;;;;25.50;19.00;;;;;0.75;70.84;102365.50;5047939;28;45581;-52
2024/01/20 05:31:23;;;;;;;;;26.25;17.25;;;;;0.73;71.18;102362.84;5040995;28;45216;-55
2024/01/20 05:33:48;;;;;;;;;21.75;18.00;;;;;0.73;71.51;102361.97;5040289;28;45485;-51
2024/01/20 05:36:14;;;;;;;;;27.75;22.00;;;;;0.72;71.78;102355.06;5040106;28;61521;-50
2024/01/20 05:38:39;;;;;;;;;24.00;20.25;;;;;0.70;71.58;102360.13;5040592;28;45430;-55
2024/01/20 05:41:05;;;;;;;;;31.00;22.75;;;;;0.68;71.73;102356.63;5040568;28;45770;-56
2024/01/20 05:43:30;;;;;;;;;29.00;19.75;;;;;0.71;72.17;102364.50;5056942;28;45597;-55
2024/01/20 05:45:55;;;;;;;;;26.00;14.33;;;;;0.71;72.10;102361.91;5040398;28;73309;-52
2024/01/20 05:48:21;;;;;;;;;30.33;18.67;;;;;0.74;72.15;102364.63;5040162;28;72506;-56
2024/01/20 05:50:47;;;;;;;;;32.25;23.00;;;;;0.75;72.19;102365.50;5040429;28;45405;-52
2024/01/20 05:53:12;;;;;;;;;35.33;21.67;;;;;0.76;72.33;102364.66;5039779;28;73287;-52
2024/01/20 05:55:37;;;;;;;;;29.33;22.00;;;;;0.78;72.41;102363.03;5039451;28;71577;-51
2024/01/20 05:58:03;;;;;;;;;24.25;18.25;;;;;0.80;72.26;102370.81;5040169;28;53490;-52
2024/01/20 06:00:28;;;;;;;;;26.75;22.50;;;;;0.81;72.24;102377.72;5039138;28;45402;-51
2024/01/20 06:02:53;;;;;;;;;33.00;19.25;;;;;0.82;72.21;102376.94;5040737;28;61856;-50
2024/01/20 06:05:19;;;;;;;;;36.00;27.25;;;;;0.82;72.33;102382.09;5039384;28;68101;-52
2024/01/20 06:07:44;;;;;;;;;35.75;25.25;;;;;0.85;72.21;102379.59;5038082;28;72472;-52
2024/01/20 06:10:09;;;;;;;;;34.50;23.25;;;;;0.84;72.08;102381.31;5039990;28;55094;-50
2024/01/20 06:12:35;;;;;;;;;29.25;20.75;;;;;0.83;72.39;102374.38;5039135;28;73289;-50
2024/01/20 06:15:00;;;;;;;;;29.75;22.25;;;;;0.82;72.18;102376.94;5071870;27;45281;-54
2024/01/20 06:17:25;;;;;;;;;33.25;20.75;;;;;0.81;72.45;102372.56;5073711;27;45265;-55
2024/01/20 06:19:51;;;;;;;;;34.25;19.00;;;;;0.81;72.61;102365.72;5039980;28;46325;-53
2024/01/20 06:22:16;;;;;;;;;26.25;20.25;;;;;0.84;72.69;102377.84;5039899;28;45477;-54
2024/01/20 06:24:41;;;;;;;;;20.33;20.33;;;;;0.85;72.63;102372.78;5037724;28;74650;-55
2024/01/20 06:27:07;;;;;;;;;32.67;20.67;;;;;0.85;72.61;102375.34;5071469;28;68616;-55
2024/01/20 06:29:32;;;;;;;;;20.25;19.00;;;;;0.85;72.61;102382.19;5040011;28;45507;-55
2024/01/20 06:31:57;;;;;;;;;33.25;19.50;;;;;0.82;72.40;102375.22;5039935;28;45427;-56
2024/01/20 06:34:23;;;;;;;;;23.50;14.75;;;;;0.80;72.55;102381.13;5047620;28;52848;-55
2024/01/20 06:36:48;;;;;;;;;30.33;19.00;;;;;0.77;72.37;102386.16;5037954;28;73040;-56
2024/01/20 06:39:13;;;;;;;;;32.50;20.50;;;;;0.77;72.39;102389.63;5043412;28;45331;-55
2024/01/20 06:41:40;;;;;;;;;22.75;16.75;;;;;0.77;72.53;102381.88;5036716;28;55023;-56
2024/01/20 06:44:06;;;;;;;;;28.25;20.25;;;;;0.75;72.49;102384.41;5035974;28;46208;-56
2024/01/20 06:46:31;;;;;;;;;25.50;19.50;;;;;0.75;72.51;102386.09;5048576;28;45343;-56
2024/01/20 06:48:57;;;;;;;;;29.00;19.33;;;;;0.74;72.42;102385.22;5058400;28;65339;-55
2024/01/20 06:51:25;;;;;;;;;12.33;9.67;;;;;0.75;72.39;102386.97;5036291;28;70916;-54
2024/01/20 06:53:57;;;;;;;;;24.25;19.25;;;;;0.76;72.63;102393.00;5042490;28;46137;-53
2024/01/20 06:56:23;;;;;;;;;31.00;19.25;;;;;0.74;72.68;102405.84;5039714;28;45700;-55
2024/01/20 06:58:48;;;;;;;;;30.75;19.25;;;;;0.75;72.63;102411.88;5054011;28;45396;-54
2024/01/20 07:01:13;;;;;;;;;29.00;20.33;;;;;0.74;72.90;102416.16;5045499;28;73101;-54
2024/01/20 07:03:38;;;;;;;;;23.75;18.75;;;;;0.74;72.95;102416.16;5077287;27;45899;-53
2024/01/20 07:06:05;;;;;;;;;34.50;21.50;;;;;0.76;72.64;102418.75;5036395;28;52866;-55
2024/01/20 07:08:31;;;;;;;;;32.50;21.00;;;;;0.75;72.56;102422.19;5049447;28;45453;-54
2024/01/20 07:10:56;;;;;;;;;26.50;19.25;;;;;0.73;72.57;102419.53;5038516;28;71153;-52
2024/01/20 07:13:21;;;;;;;;;20.25;18.50;;;;;0.73;72.70;102426.41;5037961;28;75524;-55
2024/01/20 07:15:46;;;;;;;;;25.00;16.00;;;;;0.73;72.46;102418.66;5048450;28;66369;-58
2024/01/20 07:18:12;;;;;;;;;25.25;20.25;;;;;0.73;72.81;102419.53;5042719;28;45366;-55
2024/01/20 07:20:37;;;;;;;;;25.50;15.00;;;;;0.74;72.93;102421.31;5038726;28;64443;-55
2024/01/20 07:23:03;;;;;;;;;24.00;19.33;;;;;0.76;72.78;102426.50;5049372;28;72627;-56
2024/01/20 07:25:28;;;;;;;;;36.50;24.50;;;;;0.78;73.18;102427.47;5054563;28;45371;-55
2024/01/20 07:27:53;;;;;;;;;31.00;22.00;;;;;0.79;73.15;102423.19;5040428;28;45543;-55
2024/01/20 07:30:21;;;;;;;;;29.75;21.75;;;;;0.77;72.95;102427.41;5038185;28;45604;-54
2024/01/20 07:32:46;;;;;;;;;20.00;14.00;;;;;0.75;73.08;102425.63;5038099;28;67448;-56
2024/01/20 07:35:11;;;;;;;;;29.67;24.33;;;;;0.75;73.02;102420.47;5037714;28;73405;-52
2024/01/20 07:37:37;;;;;;;;;24.75;18.50;;;;;0.77;73.16;102425.69;5044564;28;45346;-55
2024/01/20 07:40:04;;;;;;;;;26.25;22.50;;;;;0.78;73.15;102419.72;5036955;28;45325;-53
2024/01/20 07:42:29;;;;;;;;;29.75;21.25;;;;;0.79;73.17;102421.47;5042459;28;47023;-53
2024/01/20 07:44:55;;;;;;;;;26.50;21.00;;;;;0.80;72.91;102420.66;5052745;28;45542;-51
2024/01/20 07:47:20;;;;;;;;;29.33;19.00;;;;;0.82;73.24;102426.75;5037692;28;63270;-55
2024/01/20 07:49:45;;;;;;;;;45.25;23.50;;;;;0.83;73.21;102427.63;5041879;28;75265;-54
2024/01/20 07:52:11;;;;;;;;;28.00;19.33;;;;;0.85;73.32;102426.00;5042340;28;66993;-52
2024/01/20 07:54:36;;;;;;;;;29.00;16.67;;;;;0.86;73.03;102426.06;5039681;28;73200;-55
2024/01/20 07:57:01;;;;;;;;;32.67;20.00;;;;;0.84;72.99;102422.53;5037598;28;67075;-53
2024/01/20 07:59:29;;;;;;;;;22.50;19.75;;;;;0.87;73.20;102430.41;5038365;28;45578;-52
2024/01/20 08:01:54;;;;;;;;;43.25;25.25;;;;;0.88;73.48;102439.00;5047187;27;45450;-54
2024/01/20 08:04:19;;;;;;;;;23.00;18.00;;;;;0.91;73.12;102440.00;5038782;28;46167;-52
2024/01/20 08:06:45;;;;;;;;;28.75;22.25;;;;;0.93;72.88;102442.66;5039436;28;45284;-52
2024/01/20 08:09:10;;;;;;;;;23.33;13.67;;;;;0.94;73.09;102439.28;5036160;28;71638;-51
2024/01/20 08:11:35;;;;;;;;;23.00;18.75;;;;;0.94;72.96;102447.00;5041669;28;46286;-55
2024/01/20 08:14:01;;;;;;;;;25.00;14.75;;;;;0.95;72.96;102452.19;5040405;28;45431;-54
2024/01/20 08:16:28;;;;;;;;;31.00;24.00;;;;;0.97;72.87;102444.53;5070054;27;46051;-56
2024/01/20 08:18:55;;;;;;;;;23.00;19.25;;;;;0.97;72.59;102444.53;5038389;28;45275;-56
2024/01/20 08:21:21;;;;;;;;;28.25;21.75;;;;;0.98;72.69;102442.84;5038508;28;46151;-55
2024/01/20 08:23:46;;;;;;;;;35.00;23.75;;;;;0.99;72.82;102445.47;5038440;28;45251;-55
2024/01/20 08:26:11;;;;;;;;;35.33;26.00;;;;;1.03;72.94;102449.06;5036475;28;60339;-55
2024/01/20 08:28:37;;;;;;;;;23.50;18.50;;;;;1.03;72.68;102456.81;5038586;28;71500;-59
2024/01/20 08:31:02;;;;;;;;;27.50;19.25;;;;;1.04;72.63;102450.81;5037085;28;73094;-56
2024/01/20 08:33:28;;;;;;;;;22.50;19.50;;;;;1.06;72.84;102455.22;5074059;27;45163;-56
2024/01/20 08:35:53;;;;;;;;;34.00;19.00;;;;;1.09;72.57;102457.91;5048986;28;45473;-54
2024/01/20 08:38:18;;;;;;;;;27.33;17.33;;;;;1.12;72.66;102464.91;5042497;28;70704;-58
2024/01/20 08:40:43;;;;;;;;;27.75;21.00;;;;;1.11;72.54;102451.09;5036144;28;57374;-56
2024/01/20 08:43:09;;;;;;;;;19.67;19.33;;;;;1.12;72.46;102447.72;5040057;28;72272;-56
2024/01/20 08:45:34;;;;;;;;;28.25;16.00;;;;;1.18;72.71;102453.94;5050386;28;45488;-56
2024/01/20 08:48:00;;;;;;;;;40.50;20.50;;;;;1.21;72.44;102446.34;5042619;28;45402;-56
2024/01/20 08:50:26;;;;;;;;;37.50;27.25;;;;;1.23;72.43;102445.56;5041731;28;45369;-54
2024/01/20 08:52:51;;;;;;;;;31.75;22.75;;;;;1.26;72.31;102448.25;5055861;28;45443;-55
2024/01/20 08:55:17;;;;;;;;;30.75;23.00;;;;;1.28;72.26;102459.50;5041717;28;45655;-54
2024/01/20 08:57:42;;;;;;;;;31.25;20.50;;;;;1.29;72.16;102450.97;5040850;28;45323;-52
2024/01/20 09:00:09;;;;;;;;;43.75;29.25;;;;;1.31;71.95;102461.31;5041592;28;46155;-55
2024/01/20 09:02:34;;;;;;;;;39.00;27.25;;;;;1.35;72.15;102452.91;5041228;28;45894;-58
2024/01/20 09:05:00;;;;;;;;;29.33;25.00;;;;;1.39;71.85;102464.22;5038453;28;66580;-58
2024/01/20 09:07:25;;;;;;;;;32.00;25.67;;;;;1.42;71.88;102459.19;5039817;28;69478;-57
2024/01/20 09:09:52;;;;;;;;;37.50;23.50;;;;;1.43;71.77;102463.50;5052862;28;46870;-57
2024/01/20 09:12:17;;;;;;;;;34.00;26.25;;;;;1.46;71.81;102459.34;5040182;28;45913;-55
2024/01/20 09:14:43;;;;;;;;;33.75;21.00;;;;;1.45;72.07;102451.53;5042119;28;53402;-56
2024/01/20 09:17:08;;;;;;;;;29.00;15.75;;;;;1.48;71.89;102443.94;5042643;28;59550;-56
2024/01/20 09:19:33;;;;;;;;;33.25;20.00;;;;;1.51;72.11;102449.22;5043657;28;47217;-59
2024/01/20 09:21:59;;;;;;;;;32.00;20.00;;;;;1.52;71.74;102443.22;5039152;28;72146;-56
2024/01/20 09:24:24;;;;;;;;;19.33;16.67;;;;;1.54;72.02;102445.84;5040413;28;67507;-57
2024/01/20 09:26:50;;;;;;;;;29.25;19.00;;;;;1.56;71.59;102441.63;5039900;28;45655;-58
2024/01/20 09:29:15;;;;;;;;;28.75;16.25;;;;;1.60;71.48;102439.22;5037650;28;69477;-59
2024/01/20 09:31:40;;;;;;;;;21.75;10.25;;;;;1.64;71.61;102433.34;5080802;27;63489;-56
2024/01/20 09:34:06;;;;;;;;;24.50;19.75;;;;;1.67;71.50;102435.19;5074206;27;45462;-57
2024/01/20 09:36:31;;;;;;;;;30.75;19.75;;;;;1.72;71.21;102433.66;5038926;28;45314;-59
2024/01/20 09:38:56;;;;;;;;;32.50;19.75;;;;;1.74;71.35;102425.97;5041131;28;45425;-58
2024/01/20 09:41:23;;;;;;;;;21.00;17.75;;;;;1.75;71.03;102431.16;5041928;28;66657;-51
2024/01/20 09:43:48;;;;;;;;;29.25;19.00;;;;;1.78;71.21;102439.03;5040207;28;45420;-56
2024/01/20 09:46:14;;;;;;;;;29.00;21.25;;;;;1.80;70.92;102439.97;5041324;28;61800;-58
2024/01/20 09:48:39;;;;;;;;;35.00;20.00;;;;;1.84;70.99;102446.09;5053243;28;69182;-57
2024/01/20 09:51:05;;;;;;;;;19.75;15.50;;;;;1.88;70.92;102435.09;5045653;28;66074;-57
2024/01/20 09:53:31;;;;;;;;;28.50;16.75;;;;;1.94;70.68;102432.72;5037234;28;47259;-58
2024/01/20 09:55:56;;;;;;;;;20.75;14.50;;;;;1.97;70.46;102437.13;5054837;28;69649;-59
2024/01/20 09:58:23;;;;;;;;;31.25;18.25;;;;;1.99;70.04;102438.06;5039057;28;47425;-58
2024/01/20 10:00:48;;;;;;;;;21.50;18.50;;;;;2.03;70.44;102433.03;5041319;28;45993;-58
2024/01/20 10:03:16;;;;;;;;;26.25;17.75;;;;;2.08;70.50;102426.34;5038641;28;71678;-57
2024/01/20 10:05:42;;;;;;;;;34.00;19.75;;;;;2.15;70.53;102432.59;5041106;28;45306;-60
2024/01/20 10:08:07;;;;;;;;;29.50;20.50;;;;;2.19;69.92;102428.41;5041771;28;45645;-56
2024/01/20 10:10:32;;;;;;;;;25.75;19.75;;;;;2.24;69.86;102427.75;5043182;28;45346;-57
2024/01/20 10:13:00;;;;;;;;;29.50;21.50;;;;;2.30;69.89;102429.66;5039549;28;45293;-56
2024/01/20 10:15:27;;;;;;;;;24.00;13.25;;;;;2.35;69.85;102433.28;5037666;28;45492;-56
2024/01/20 10:17:53;;;;;;;;;28.25;20.75;;;;;2.40;69.56;102433.44;5033031;28;45359;-59
2024/01/20 10:20:22;;;;;;;;;31.75;20.50;;;;;2.45;69.56;102426.75;5038854;28;45513;-57
2024/01/20 10:22:49;;;;;;;;;23.75;17.25;;;;;2.51;69.45;102418.31;5040665;28;45297;-58
2024/01/20 10:25:19;;;;;;;;;19.25;16.25;;;;;2.57;69.10;102418.53;5038504;28;45402;-57
2024/01/20 10:27:49;;;;;;;;;21.00;17.25;;;;;2.64;69.09;102412.72;5021200;28;46911;-59
2024/01/20 10:30:18;;;;;;;;;21.00;20.25;;;;;2.68;68.83;102416.28;5038649;28;45748;-58
2024/01/20 10:32:47;;;;;;;;;20.00;18.75;;;;;2.77;68.94;102432.09;5041223;28;45331;-59
2024/01/20 10:35:12;;;;;;;;;32.00;22.00;;;;;2.86;68.75;102424.63;5045672;28;45502;-59
2024/01/20 10:37:40;;;;;;;;;25.50;18.50;;;;;2.90;68.75;102417.84;5044497;28;46033;-58
2024/01/20 10:40:09;;;;;;;;;38.75;26.25;;;;;2.98;68.76;102425.03;5039549;28;45773;-57
2024/01/20 10:42:47;;;;;;;;;90.25;67.25;;;;;3.09;68.62;102420.19;5035660;28;45472;-59
2024/01/20 10:45:17;;;;;;;;;41.00;30.25;;;;;3.17;68.47;102415.22;5077670;27;45469;-58
2024/01/20 10:47:49;;;;;;;;;25.25;20.25;;;;;3.27;67.87;102422.44;5035471;28;46917;-58
2024/01/20 10:50:16;;;;;;;;;24.25;19.25;;;;;3.34;67.72;102420.94;5040743;28;45496;-57
2024/01/20 10:52:42;;;;;;;;;38.50;23.75;;;;;3.40;67.62;102426.31;5036539;28;45464;-57
2024/01/20 10:55:08;;;;;;;;;29.75;23.50;;;;;3.48;67.31;102423.94;5038514;28;45648;-57
2024/01/20 10:57:33;;;;;;;;;27.25;22.75;;;;;3.55;67.32;102420.69;5041609;28;45688;-58
2024/01/20 11:00:00;;;;;;;;;33.25;21.00;;;;;3.58;67.10;102415.63;5044220;28;45523;-61
2024/01/20 11:02:26;;;;;;;;;31.75;23.50;;;;;3.68;67.06;102424.50;5074020;27;47149;-58
2024/01/20 11:04:51;;;;;;;;;28.50;22.50;;;;;3.74;66.40;102420.38;5018481;28;45889;-60
2024/01/20 11:07:22;;;;;;;;;61.00;44.25;;;;;3.83;66.51;102416.31;5036687;28;71960;-58
2024/01/20 11:09:57;;;;;;;;;33.00;24.00;;;;;3.90;66.31;102410.47;5039034;28;45299;-59